Time;durP1;ratioP1;P1;durP2;ratioP2;P2;SDS_P1;SDS_P2;PMS_P1;PMS_P2;Temp;Humidity;BMP_temperature;BMP_pressure;BME280_temperature;BME280_humidity;BME280_pressure;Samples;Min_cycle;Max_cycle;Signal;HPM_P1;HPM_P2
2022/07/24 00:01:13;;;;;;;5.50;3.83;;;22.60;68.70;;;;;;4994005;28;20455;-71
2022/07/24 00:03:40;;;;;;;4.57;4.17;;;22.60;69.10;;;;;;4993605;28;20820;-71
2022/07/24 00:06:07;;;;;;;4.73;4.33;;;22.50;69.10;;;;;;4993564;28;20452;-72
2022/07/24 00:08:33;;;;;;;4.77;4.47;;;22.40;69.10;;;;;;4993856;28;20468;-71
2022/07/24 00:11:00;;;;;;;5.27;4.80;;;22.40;69.40;;;;;;4993774;28;20452;-71
2022/07/24 00:13:27;;;;;;;5.23;4.83;;;22.40;69.70;;;;;;4993589;28;20971;-71
2022/07/24 00:15:55;;;;;;;5.83;5.33;;;22.40;70.00;;;;;;4993408;28;20950;-71
2022/07/24 00:18:22;;;;;;;5.27;4.87;;;22.30;70.10;;;;;;4993742;28;20464;-71
2022/07/24 00:20:49;;;;;;;4.53;4.23;;;22.30;70.20;;;;;;4993982;28;20487;-71
2022/07/24 00:23:15;;;;;;;5.60;4.43;;;22.30;70.40;;;;;;4993780;28;20466;-72
2022/07/24 00:25:42;;;;;;;5.20;4.70;;;22.30;70.50;;;;;;4996681;28;20452;-72
2022/07/24 00:28:09;;;;;;;5.87;5.37;;;22.30;70.60;;;;;;4997385;28;20464;-71
2022/07/24 00:30:37;;;;;;;6.87;6.17;;;22.30;70.90;;;;;;4997045;28;20454;-71
2022/07/24 00:33:05;;;;;;;5.93;5.47;;;22.30;71.10;;;;;;4997367;28;20463;-72
2022/07/24 00:35:32;;;;;;;6.37;5.20;;;22.30;71.30;;;;;;4997311;28;20448;-72
2022/07/24 00:37:59;;;;;;;5.57;5.17;;;22.30;71.50;;;;;;4997072;28;20494;-71
2022/07/24 00:40:27;;;;;;;5.63;5.23;;;22.30;71.60;;;;;;4997214;28;20448;-71
2022/07/24 00:42:54;;;;;;;9.40;5.50;;;22.30;71.60;;;;;;4997153;28;20486;-72
2022/07/24 00:45:20;;;;;;;6.43;5.77;;;22.30;72.50;;;;;;4997105;28;20976;-72
2022/07/24 00:47:47;;;;;;;6.10;5.53;;;22.30;71.70;;;;;;4997031;28;20781;-71
2022/07/24 00:50:15;;;;;;;5.80;5.30;;;22.30;71.70;;;;;;4996752;28;20964;-71
2022/07/24 00:52:44;;;;;;;6.53;5.93;;;22.30;71.80;;;;;;4997305;28;20448;-71
2022/07/24 00:55:11;;;;;;;8.40;6.27;;;22.20;71.60;;;;;;4997024;28;20456;-72
2022/07/24 00:57:38;;;;;;;6.77;6.27;;;22.20;71.60;;;;;;4996798;28;20480;-71
2022/07/24 01:00:08;;;;;;;6.40;5.80;;;22.20;71.80;;;;;;4996614;28;20459;-71
2022/07/24 01:02:35;;;;;;;7.40;5.70;;;22.20;71.90;;;;;;4996982;28;20492;-72
2022/07/24 01:05:03;;;;;;;8.37;6.13;;;22.20;71.90;;;;;;4996978;28;20452;-72
2022/07/24 01:07:31;;;;;;;6.40;5.80;;;22.20;72.00;;;;;;4996492;28;20969;-72
2022/07/24 01:09:59;;;;;;;6.90;6.30;;;22.10;71.90;;;;;;4996692;28;20468;-71
2022/07/24 01:12:26;;;;;;;7.97;5.33;;;22.10;71.90;;;;;;4996475;28;20453;-71
2022/07/24 01:14:53;;;;;;;6.17;5.57;;;22.10;72.00;;;;;;4996368;28;20972;-72
2022/07/24 01:17:20;;;;;;;6.57;5.97;;;22.10;72.10;;;;;;4996533;28;20511;-72
2022/07/24 01:19:47;;;;;;;7.13;6.40;;;22.00;72.10;;;;;;4996734;28;20465;-71
2022/07/24 01:22:15;;;;;;;7.10;6.37;;;21.90;72.00;;;;;;4996539;28;20452;-72
2022/07/24 01:24:42;;;;;;;6.77;5.70;;;21.90;72.10;;;;;;4996496;28;20820;-72
2022/07/24 01:27:09;;;;;;;6.50;5.93;;;21.90;72.30;;;;;;4996657;28;20448;-72
2022/07/24 01:29:36;;;;;;;7.10;6.33;;;21.80;72.30;;;;;;4996234;28;20467;-71
2022/07/24 01:32:02;;;;;;;6.33;5.73;;;21.80;72.30;;;;;;4996329;28;20465;-71
2022/07/24 01:34:29;;;;;;;7.00;6.40;;;21.80;72.50;;;;;;4996240;28;20478;-72
2022/07/24 01:36:56;;;;;;;7.93;5.83;;;21.80;72.50;;;;;;4995125;28;20484;-72
2022/07/24 01:39:24;;;;;;;6.37;5.87;;;21.80;72.80;;;;;;4995915;28;20880;-71
2022/07/24 01:41:51;;;;;;;6.30;5.77;;;21.70;73.00;;;;;;4996116;28;20459;-71
2022/07/24 01:44:18;;;;;;;7.17;6.53;;;21.70;73.10;;;;;;4995994;28;20453;-72
2022/07/24 01:46:45;;;;;;;7.63;6.43;;;21.70;73.20;;;;;;4995987;28;20448;-72
2022/07/24 01:49:11;;;;;;;6.77;5.70;;;21.70;73.50;;;;;;4996096;28;20468;-71
2022/07/24 01:51:38;;;;;;;7.17;6.57;;;21.70;73.60;;;;;;4995982;28;20837;-71
2022/07/24 01:54:05;;;;;;;7.00;5.80;;;21.70;73.70;;;;;;4995832;28;20448;-72
2022/07/24 01:56:34;;;;;;;6.50;5.93;;;21.70;73.90;;;;;;4995401;28;20456;-71
2022/07/24 01:59:01;;;;;;;8.00;7.13;;;21.70;73.90;;;;;;4995736;28;20475;-71
2022/07/24 02:01:29;;;;;;;5.97;5.47;;;21.60;73.90;;;;;;4995759;28;20501;-71
2022/07/24 02:03:56;;;;;;;6.77;6.17;;;21.60;74.20;;;;;;4995710;28;20448;-71
2022/07/24 02:06:22;;;;;;;6.67;6.07;;;21.60;74.30;;;;;;4995692;28;20560;-71
2022/07/24 02:08:49;;;;;;;8.27;6.57;;;21.60;74.40;;;;;;4995197;28;20475;-71
2022/07/24 02:11:18;;;;;;;6.67;6.17;;;21.60;74.50;;;;;;4995254;28;20473;-71
2022/07/24 02:13:46;;;;;;;7.30;6.60;;;21.50;74.50;;;;;;4995533;28;20536;-71
2022/07/24 02:16:12;;;;;;;6.67;6.00;;;21.50;74.80;;;;;;4995523;28;20452;-71
2022/07/24 02:18:39;;;;;;;6.43;5.93;;;21.50;74.80;;;;;;4995190;28;20492;-71
2022/07/24 02:21:06;;;;;;;6.93;5.90;;;21.50;75.00;;;;;;4995412;28;20458;-71
2022/07/24 02:23:33;;;;;;;6.63;6.03;;;21.50;75.00;;;;;;4995463;28;20463;-71
2022/07/24 02:26:00;;;;;;;7.10;6.37;;;21.50;75.20;;;;;;4995125;28;20463;-71
2022/07/24 02:28:26;;;;;;;6.97;6.40;;;21.50;75.20;;;;;;4995243;28;20460;-71
2022/07/24 02:30:55;;;;;;;7.20;6.50;;;21.40;75.20;;;;;;4995151;28;20449;-70
2022/07/24 02:33:22;;;;;;;6.40;5.90;;;21.40;75.20;;;;;;4995151;28;20852;-71
2022/07/24 02:35:48;;;;;;;6.97;6.40;;;21.40;75.30;;;;;;4995174;28;20509;-71
2022/07/24 02:38:15;;;;;;;9.03;6.50;;;21.40;75.50;;;;;;4995272;28;20496;-70
2022/07/24 02:40:42;;;;;;;7.60;6.90;;;21.40;75.70;;;;;;4995005;28;20453;-71
2022/07/24 02:43:08;;;;;;;7.27;6.53;;;21.40;76.60;;;;;;4994933;28;20455;-71
2022/07/24 02:45:36;;;;;;;9.13;6.80;;;21.30;75.70;;;;;;4995139;28;20455;-71
2022/07/24 02:48:05;;;;;;;7.57;6.60;;;21.30;76.10;;;;;;4994877;28;20468;-70
2022/07/24 02:50:35;;;;;;;8.27;7.00;;;21.30;76.20;;;;;;4994840;28;20460;-71
2022/07/24 02:53:02;;;;;;;9.00;5.97;;;21.30;76.30;;;;;;4994657;28;20428;-71
2022/07/24 02:55:29;;;;;;;7.40;6.60;;;21.30;76.30;;;;;;4994765;28;20449;-71
2022/07/24 02:57:56;;;;;;;9.13;7.77;;;21.20;76.30;;;;;;4994559;28;20480;-71
2022/07/24 03:00:23;;;;;;;7.47;6.77;;;21.30;76.70;;;;;;4994694;28;20448;-71
2022/07/24 03:02:50;;;;;;;7.40;6.70;;;21.20;76.60;;;;;;4994620;28;20444;-71
2022/07/24 03:05:18;;;;;;;9.67;7.50;;;21.20;76.80;;;;;;4994593;28;20452;-71
2022/07/24 03:07:46;;;;;;;7.77;6.70;;;21.20;76.80;;;;;;4994498;28;20476;-70
2022/07/24 03:10:14;;;;;;;7.67;7.00;;;21.10;76.70;;;;;;4994602;28;20448;-71
2022/07/24 03:12:41;;;;;;;8.87;7.53;;;21.10;76.70;;;;;;4994023;28;21061;-71
2022/07/24 03:15:08;;;;;;;12.23;7.80;;;21.10;76.70;;;;;;4994459;28;20460;-71
2022/07/24 03:17:35;;;;;;;8.17;7.47;;;21.10;76.90;;;;;;4994055;28;20487;-71
2022/07/24 03:20:03;;;;;;;7.70;6.93;;;21.00;76.90;;;;;;4993685;28;20468;-70
2022/07/24 03:22:31;;;;;;;7.97;7.17;;;21.00;77.00;;;;;;5013748;28;20443;-71
2022/07/24 03:24:57;;;;;;;8.10;7.00;;;21.00;77.40;;;;;;5013662;28;20962;-71
2022/07/24 03:27:24;;;;;;;9.37;7.87;;;21.00;77.40;;;;;;5013947;28;20490;-70
2022/07/24 03:29:51;;;;;;;11.00;7.47;;;21.00;77.40;;;;;;5013770;28;20467;-71
2022/07/24 03:32:18;;;;;;;14.30;8.70;;;21.00;77.40;;;;;;5013790;28;20783;-71
2022/07/24 03:34:44;;;;;;;7.97;7.17;;;20.90;77.30;;;;;;5013781;28;20952;-71
2022/07/24 03:37:11;;;;;;;9.00;7.87;;;20.90;77.50;;;;;;5013416;28;20455;-71
2022/07/24 03:39:39;;;;;;;8.97;8.10;;;20.90;77.70;;;;;;5013609;28;20473;-71
2022/07/24 03:42:06;;;;;;;8.73;7.47;;;20.90;77.80;;;;;;5013831;28;20454;-71
2022/07/24 03:44:33;;;;;;;9.73;8.73;;;20.90;77.90;;;;;;5013733;28;20458;-71
2022/07/24 03:47:00;;;;;;;9.80;7.80;;;20.90;78.00;;;;;;5013655;28;20500;-68
2022/07/24 03:49:26;;;;;;;11.50;8.50;;;20.90;78.10;;;;;;5013577;28;20478;-70
2022/07/24 03:51:53;;;;;;;9.23;8.33;;;20.80;78.20;;;;;;5013775;28;20450;-71
2022/07/24 03:54:20;;;;;;;10.27;9.00;;;20.80;78.60;;;;;;5013651;28;20443;-71
2022/07/24 03:56:48;;;;;;;8.33;7.63;;;20.80;78.70;;;;;;5013185;28;20829;-70
2022/07/24 03:59:15;;;;;;;9.17;8.03;;;20.80;79.30;;;;;;5013665;28;20487;-70
2022/07/24 04:01:42;;;;;;;9.90;8.90;;;20.80;78.60;;;;;;5017529;28;20451;-70
2022/07/24 04:04:09;;;;;;;8.87;8.07;;;20.70;78.80;;;;;;5017489;28;20447;-71
2022/07/24 04:06:36;;;;;;;9.30;8.50;;;20.70;79.00;;;;;;5017154;28;20458;-71
2022/07/24 04:09:04;;;;;;;8.43;7.63;;;20.80;79.30;;;;;;5017359;28;20482;-71
2022/07/24 04:11:31;;;;;;;9.00;8.20;;;20.80;79.60;;;;;;5017119;28;20469;-71
2022/07/24 04:13:59;;;;;;;9.80;8.80;;;20.80;79.80;;;;;;5017280;28;20925;-71
2022/07/24 04:16:26;;;;;;;9.63;8.60;;;20.80;79.80;;;;;;5017266;28;20443;-71
2022/07/24 04:18:53;;;;;;;9.80;8.90;;;20.80;79.90;;;;;;5016738;28;20482;-70
2022/07/24 04:21:20;;;;;;;11.57;8.67;;;20.90;80.10;;;;;;5017083;28;20952;-71
2022/07/24 04:23:46;;;;;;;9.23;8.10;;;20.90;80.10;;;;;;5017166;28;20446;-71
2022/07/24 04:26:13;;;;;;;8.10;7.30;;;20.90;80.10;;;;;;5017120;28;20459;-71
2022/07/24 04:28:41;;;;;;;9.53;8.53;;;21.00;80.30;;;;;;5017031;28;20463;-71
2022/07/24 04:31:10;;;;;;;12.60;8.60;;;21.00;80.50;;;;;;5016997;28;20462;-71
2022/07/24 04:33:37;;;;;;;9.07;8.13;;;21.00;80.30;;;;;;5016952;28;20451;-71
2022/07/24 04:36:05;;;;;;;9.80;8.70;;;21.00;80.20;;;;;;5016942;28;20450;-71
2022/07/24 04:38:32;;;;;;;11.47;8.13;;;21.00;80.30;;;;;;5016710;28;20490;-71
2022/07/24 04:40:59;;;;;;;9.57;8.70;;;21.00;80.20;;;;;;5017011;28;20453;-71
2022/07/24 04:43:26;;;;;;;9.57;7.80;;;21.00;80.20;;;;;;5016841;28;20451;-71
2022/07/24 04:45:53;;;;;;;12.93;9.20;;;20.90;80.50;;;;;;5016980;28;20443;-71
2022/07/24 04:48:21;;;;;;;11.30;10.20;;;21.00;80.80;;;;;;5016611;28;20537;-71
2022/07/24 04:50:48;;;;;;;10.37;9.40;;;20.90;80.90;;;;;;5016420;28;20457;-71
2022/07/24 04:53:14;;;;;;;11.10;10.00;;;20.80;81.30;;;;;;5016660;28;20447;-71
2022/07/24 04:55:41;;;;;;;12.43;9.60;;;20.80;81.40;;;;;;5016628;28;20486;-71
2022/07/24 04:58:08;;;;;;;10.53;9.60;;;20.70;81.80;;;;;;5016023;28;21026;-72
2022/07/24 05:00:35;;;;;;;12.17;9.97;;;20.70;82.30;;;;;;5016289;28;20814;-70
2022/07/24 05:03:02;;;;;;;10.93;9.63;;;20.70;82.90;;;;;;5016135;28;20829;-71
2022/07/24 05:05:30;;;;;;;11.17;9.80;;;20.60;83.20;;;;;;5016352;28;20443;-71
2022/07/24 05:07:56;;;;;;;10.23;9.10;;;20.50;84.50;;;;;;5016236;28;20459;-70
2022/07/24 05:10:23;;;;;;;10.40;9.40;;;20.50;84.50;;;;;;5016004;28;20455;-71
2022/07/24 05:12:50;;;;;;;9.00;8.17;;;20.50;84.50;;;;;;5015949;28;20878;-71
2022/07/24 05:15:17;;;;;;;9.57;8.50;;;20.60;85.20;;;;;;5016165;28;20452;-71
2022/07/24 05:17:43;;;;;;;11.53;8.90;;;20.60;85.30;;;;;;5015994;28;20443;-70
2022/07/24 05:20:11;;;;;;;10.13;8.77;;;20.70;85.40;;;;;;5016149;28;20455;-71
2022/07/24 05:22:39;;;;;;;9.10;8.17;;;20.80;85.30;;;;;;5016024;28;20502;-71
2022/07/24 05:25:07;;;;;;;8.43;7.73;;;20.90;84.80;;;;;;5016050;28;20448;-71
2022/07/24 05:27:34;;;;;;;15.87;9.47;;;21.00;84.10;;;;;;5015992;28;20451;-71
2022/07/24 05:30:01;;;;;;;9.40;8.10;;;21.10;83.80;;;;;;5016114;28;20467;-71
2022/07/24 05:32:28;;;;;;;8.10;7.20;;;21.20;83.40;;;;;;5015736;28;20459;-71
2022/07/24 05:34:55;;;;;;;10.13;7.80;;;21.30;82.90;;;;;;5015886;28;20444;-71
2022/07/24 05:37:22;;;;;;;10.93;9.83;;;21.40;82.90;;;;;;5015784;28;20451;-71
2022/07/24 05:39:50;;;;;;;12.00;8.50;;;21.40;80.80;;;;;;5015532;28;20491;-71
2022/07/24 05:42:17;;;;;;;9.03;8.23;;;21.50;79.40;;;;;;5015735;28;20966;-71
2022/07/24 05:44:44;;;;;;;9.57;8.43;;;21.50;78.60;;;;;;5015676;28;20443;-71
2022/07/24 05:47:10;;;;;;;9.03;8.23;;;21.60;77.90;;;;;;5015555;28;20443;-70
2022/07/24 05:49:37;;;;;;;8.77;7.87;;;21.60;77.90;;;;;;5015548;28;20490;-71
2022/07/24 05:52:04;;;;;;;7.70;6.90;;;21.60;78.20;;;;;;5015257;28;20815;-71
2022/07/24 05:54:31;;;;;;;7.60;6.90;;;21.70;78.60;;;;;;5015462;28;20455;-71
2022/07/24 05:56:59;;;;;;;9.70;8.57;;;21.70;79.00;;;;;;5015340;28;20459;-71
2022/07/24 05:59:26;;;;;;;9.23;8.43;;;21.80;78.30;;;;;;5015011;28;20490;-71
2022/07/24 06:01:52;;;;;;;9.53;6.90;;;21.80;76.70;;;;;;5015282;28;20454;-71
2022/07/24 06:04:19;;;;;;;9.53;8.17;;;21.90;76.90;;;;;;5015272;28;20447;-71
2022/07/24 06:06:46;;;;;;;8.77;8.07;;;21.90;77.00;;;;;;5015264;28;20458;-71
2022/07/24 06:09:13;;;;;;;8.90;7.93;;;22.00;77.10;;;;;;5015173;28;20825;-71
2022/07/24 06:11:39;;;;;;;7.17;6.53;;;22.00;76.50;;;;;;5015108;28;20470;-72
2022/07/24 06:14:07;;;;;;;8.37;7.67;;;22.10;75.30;;;;;;5015174;28;20458;-72
2022/07/24 06:16:34;;;;;;;12.30;8.73;;;22.10;75.80;;;;;;5015038;28;20458;-71
2022/07/24 06:19:02;;;;;;;8.80;8.10;;;22.20;76.40;;;;;;5014945;28;20495;-72
2022/07/24 06:21:28;;;;;;;8.40;7.60;;;22.30;75.50;;;;;;5003088;28;20965;-71
2022/07/24 06:23:55;;;;;;;6.77;6.23;;;22.30;74.50;;;;;;4994819;28;20479;-71
2022/07/24 06:26:22;;;;;;;8.03;7.37;;;22.40;75.10;;;;;;4995215;28;20452;-71
2022/07/24 06:28:49;;;;;;;9.17;7.83;;;22.50;75.20;;;;;;4995210;28;20467;-71
2022/07/24 06:31:17;;;;;;;8.20;7.50;;;22.60;74.20;;;;;;4995169;28;20448;-71
2022/07/24 06:33:43;;;;;;;7.77;7.00;;;22.70;73.20;;;;;;4994897;28;20454;-71
2022/07/24 06:36:10;;;;;;;8.23;7.30;;;22.80;72.70;;;;;;4994838;28;20972;-71
2022/07/24 06:38:37;;;;;;;7.07;6.47;;;22.80;72.20;;;;;;4995208;28;20480;-71
2022/07/24 06:41:04;;;;;;;8.10;7.30;;;22.90;71.60;;;;;;4994996;28;20451;-71
2022/07/24 06:43:31;;;;;;;14.37;11.37;;;23.10;71.90;;;;;;4995031;28;20463;-72
2022/07/24 06:45:58;;;;;;;8.80;8.00;;;23.20;72.30;;;;;;4994991;28;20448;-72
2022/07/24 06:48:26;;;;;;;9.67;8.67;;;23.20;71.50;;;;;;4994745;28;21043;-71
2022/07/24 06:50:53;;;;;;;12.40;11.10;;;23.30;71.50;;;;;;4994683;28;20942;-71
2022/07/24 06:53:19;;;;;;;11.40;10.27;;;23.40;71.00;;;;;;4994940;28;20449;-71
2022/07/24 06:55:46;;;;;;;10.07;9.07;;;23.50;69.50;;;;;;4994453;28;20452;-71
2022/07/24 06:58:13;;;;;;;13.13;12.03;;;23.60;68.80;;;;;;4994567;28;20527;-71
2022/07/24 07:00:40;;;;;;;13.53;11.10;;;23.80;69.00;;;;;;4994765;28;20452;-71
2022/07/24 07:03:07;;;;;;;16.93;15.17;;;23.80;70.20;;;;;;4994345;28;20947;-71
2022/07/24 07:05:35;;;;;;;15.70;14.20;;;23.90;70.50;;;;;;4994379;28;20514;-71
2022/07/24 07:08:02;;;;;;;16.80;15.20;;;23.90;70.10;;;;;;4994551;28;20468;-71
2022/07/24 07:10:29;;;;;;;17.67;15.37;;;24.00;69.90;;;;;;4994638;28;20455;-71
2022/07/24 07:12:56;;;;;;;16.77;14.97;;;24.10;70.30;;;;;;4994245;28;20456;-71
2022/07/24 07:15:23;;;;;;;14.13;12.43;;;24.20;69.10;;;;;;4994451;28;20452;-71
2022/07/24 07:17:49;;;;;;;16.40;14.47;;;24.30;69.30;;;;;;4994392;28;20448;-71
2022/07/24 07:20:16;;;;;;;12.67;11.57;;;24.50;67.60;;;;;;4994041;28;20882;-71
2022/07/24 07:22:45;;;;;;;12.63;11.30;;;24.70;68.20;;;;;;4994347;28;20452;-72
2022/07/24 07:25:12;;;;;;;16.10;14.70;;;24.90;65.90;;;;;;4994036;28;20950;-72
2022/07/24 07:27:40;;;;;;;14.63;13.23;;;25.00;65.80;;;;;;4994261;28;20453;-71
2022/07/24 07:30:09;;;;;;;17.33;15.73;;;25.20;64.50;;;;;;4994267;28;20507;-71
2022/07/24 07:32:35;;;;;;;20.57;17.10;;;25.30;64.20;;;;;;4994340;28;20458;-71
2022/07/24 07:35:02;;;;;;;18.20;15.10;;;25.40;66.20;;;;;;4994200;28;20456;-72
2022/07/24 07:37:29;;;;;;;18.53;16.73;;;25.50;65.60;;;;;;4994290;28;20448;-72
2022/07/24 07:39:58;;;;;;;17.03;14.50;;;25.60;64.70;;;;;;4994132;28;20853;-71
2022/07/24 07:42:25;;;;;;;16.13;13.63;;;25.60;64.00;;;;;;4994199;28;20444;-71
2022/07/24 07:44:51;;;;;;;13.40;12.20;;;25.70;63.80;;;;;;4994088;28;20460;-71
2022/07/24 07:47:18;;;;;;;15.83;14.27;;;25.80;62.60;;;;;;4993798;28;20968;-71
2022/07/24 07:49:45;;;;;;;13.17;12.03;;;26.00;63.30;;;;;;4993683;28;20838;-71
2022/07/24 07:52:12;;;;;;;16.33;14.70;;;26.10;62.10;;;;;;4994285;28;20444;-71
2022/07/24 07:54:38;;;;;;;16.67;15.07;;;26.10;62.70;;;;;;4994097;28;20448;-71
2022/07/24 07:57:06;;;;;;;16.43;14.77;;;26.30;59.80;;;;;;4993677;28;20950;-71
2022/07/24 07:59:33;;;;;;;16.60;14.80;;;26.40;60.20;;;;;;4994093;28;20488;-72
2022/07/24 08:02:00;;;;;;;13.10;11.93;;;26.50;60.20;;;;;;4993998;28;20483;-72
2022/07/24 08:04:27;;;;;;;15.73;14.23;;;26.60;58.70;;;;;;4993994;28;20444;-72
2022/07/24 08:06:53;;;;;;;13.37;11.60;;;26.70;58.10;;;;;;4994138;28;20459;-71
2022/07/24 08:09:21;;;;;;;13.13;11.83;;;26.80;58.60;;;;;;4993848;28;20466;-71
2022/07/24 08:11:48;;;;;;;15.07;13.47;;;26.90;58.30;;;;;;4993784;28;20464;-72
2022/07/24 08:14:16;;;;;;;14.93;13.50;;;27.10;58.70;;;;;;4993986;28;20523;-72
2022/07/24 08:16:43;;;;;;;14.80;10.70;;;27.20;56.90;;;;;;4993512;28;20962;-71
2022/07/24 08:19:10;;;;;;;18.80;11.80;;;27.20;56.40;;;;;;4993653;28;20492;-71
2022/07/24 08:21:36;;;;;;;12.60;11.50;;;27.20;56.40;;;;;;4993863;28;20456;-71
2022/07/24 08:24:03;;;;;;;14.50;11.67;;;27.30;57.20;;;;;;4993878;28;20456;-71
2022/07/24 08:26:31;;;;;;;13.80;12.57;;;27.30;55.40;;;;;;4993412;28;20988;-71
2022/07/24 08:28:58;;;;;;;13.00;11.70;;;27.40;55.20;;;;;;4993701;28;20526;-71
2022/07/24 08:31:27;;;;;;;13.70;12.30;;;27.40;56.60;;;;;;4993737;28;20456;-71
2022/07/24 08:33:54;;;;;;;13.03;10.67;;;27.50;55.40;;;;;;4993761;28;20441;-71
2022/07/24 08:36:21;;;;;;;11.70;8.33;;;27.60;55.30;;;;;;4993694;28;20447;-71
2022/07/24 08:38:48;;;;;;;8.80;8.00;;;27.90;53.90;;;;;;4993560;28;20484;-71
2022/07/24 08:41:15;;;;;;;10.07;9.17;;;28.10;53.90;;;;;;4993576;28;20463;-71
2022/07/24 08:43:42;;;;;;;10.03;9.00;;;28.40;53.10;;;;;;4993665;28;20451;-72
2022/07/24 08:46:11;;;;;;;8.83;8.07;;;28.60;52.10;;;;;;4995275;28;20466;-70
2022/07/24 08:48:44;;;;;;;10.90;9.80;;;28.80;51.20;;;;;;4996737;28;20997;-69
2022/07/24 08:51:12;;;;;;;10.00;8.50;;;29.10;50.30;;;;;;4997251;28;20507;-69
2022/07/24 08:53:39;;;;;;;11.13;8.70;;;29.40;50.50;;;;;;4997063;28;20479;-70
2022/07/24 08:56:06;;;;;;;8.90;8.10;;;29.50;49.80;;;;;;4997086;28;20448;-70
2022/07/24 08:58:37;;;;;;;10.70;9.80;;;29.60;49.50;;;;;;4996802;28;20479;-69
2022/07/24 09:01:04;;;;;;;9.47;8.67;;;29.90;48.70;;;;;;4997032;28;20444;-69
2022/07/24 09:03:41;;;;;;;8.63;7.93;;;30.10;47.90;;;;;;4996829;28;20452;-70
2022/07/24 09:06:09;;;;;;;7.93;7.23;;;30.40;48.20;;;;;;4996959;28;20527;-70
2022/07/24 09:08:37;;;;;;;8.70;8.00;;;30.50;47.90;;;;;;4996402;28;20890;-69
2022/07/24 09:11:04;;;;;;;8.33;6.97;;;30.70;46.20;;;;;;4996536;28;20456;-69
2022/07/24 09:14:29;;;;;;;8.40;7.70;;;30.70;46.80;;;;;;4996789;28;20444;-70
2022/07/24 09:16:23;;;;;;;6.43;5.90;;;30.70;45.00;;;;;;4996221;28;20508;-70
2022/07/24 09:19:02;;;;;;;8.00;7.27;;;30.80;44.50;;;;;;4996414;28;20472;-70
2022/07/24 09:21:33;;;;;;;7.37;6.70;;;31.00;43.80;;;;;;4996454;28;20471;-71
2022/07/24 09:24:02;;;;;;;6.70;6.10;;;31.20;43.40;;;;;;4996557;28;20436;-71
2022/07/24 09:26:43;;;;;;;7.53;6.80;;;31.40;41.90;;;;;;4996621;28;20454;-71
2022/07/24 09:29:12;;;;;;;9.00;7.67;;;31.50;41.50;;;;;;4996429;28;20526;-70
2022/07/24 09:31:54;;;;;;;9.23;6.10;;;31.40;41.20;;;;;;4996025;28;20894;-70
2022/07/24 09:34:23;;;;;;;8.53;6.50;;;31.50;42.10;;;;;;4996344;28;20432;-70
2022/07/24 09:37:00;;;;;;;8.70;6.20;;;31.80;41.60;;;;;;4996249;28;20448;-71
2022/07/24 09:39:29;;;;;;;10.60;7.00;;;32.00;41.80;;;;;;4996147;28;20483;-70
2022/07/24 09:41:57;;;;;;;7.00;6.50;;;32.10;42.20;;;;;;4996239;28;20466;-70
2022/07/24 09:44:25;;;;;;;7.23;6.33;;;32.30;41.30;;;;;;4996434;28;20448;-70
2022/07/24 09:46:57;;;;;;;7.27;6.67;;;32.30;40.50;;;;;;4996367;28;20820;-70
2022/07/24 09:49:27;;;;;;;7.40;6.70;;;32.50;39.50;;;;;;4996038;28;20467;-70
2022/07/24 09:52:12;;;;;;;9.07;7.30;;;32.80;39.00;;;;;;4996156;28;20804;-70
2022/07/24 09:54:41;;;;;;;8.40;7.80;;;32.90;39.80;;;;;;4996107;28;20455;-70
2022/07/24 09:57:21;;;;;;;8.60;7.90;;;33.00;39.00;;;;;;4995315;28;20458;-70
2022/07/24 09:59:49;;;;;;;8.13;7.50;;;33.00;39.20;;;;;;4996022;28;20486;-70
2022/07/24 10:02:17;;;;;;;8.00;7.30;;;32.80;38.20;;;;;;4995827;28;20448;-71
2022/07/24 10:04:47;;;;;;;7.30;6.70;;;32.70;39.90;;;;;;4996333;28;20455;-71
2022/07/24 10:07:16;;;;;;;7.97;7.27;;;32.50;40.40;;;;;;4995705;28;20451;-71
2022/07/24 10:09:45;;;;;;;8.30;7.57;;;32.50;38.00;;;;;;4995577;28;20468;-70
2022/07/24 10:12:14;;;;;;;9.60;6.83;;;32.30;39.00;;;;;;4995385;28;20467;-70
2022/07/24 10:14:42;;;;;;;7.50;6.90;;;32.30;39.50;;;;;;4995646;28;20451;-71
2022/07/24 10:17:10;;;;;;;12.40;7.23;;;32.60;38.60;;;;;;4995582;28;20451;-70
2022/07/24 10:19:45;;;;;;;7.87;7.00;;;32.90;38.90;;;;;;4994996;28;20833;-70
2022/07/24 10:22:15;;;;;;;7.40;6.80;;;33.10;38.00;;;;;;4995514;28;20432;-70
2022/07/24 10:24:54;;;;;;;7.30;6.80;;;33.10;37.10;;;;;;4995103;28;20850;-70
2022/07/24 10:27:26;;;;;;;7.30;6.60;;;33.30;37.70;;;;;;4995295;28;20856;-70
2022/07/24 10:29:54;;;;;;;7.00;6.40;;;33.70;36.50;;;;;;4994995;28;20805;-70
2022/07/24 10:32:21;;;;;;;8.23;7.60;;;34.30;35.60;;;;;;4994932;28;20973;-71
2022/07/24 10:34:52;;;;;;;7.97;7.20;;;34.60;34.40;;;;;;4995233;28;20483;-71
2022/07/24 10:37:27;;;;;;;7.70;7.10;;;34.70;34.60;;;;;;4995206;28;20436;-71
2022/07/24 10:40:04;;;;;;;8.17;6.67;;;34.80;34.70;;;;;;4994966;28;20889;-70
2022/07/24 10:42:32;;;;;;;7.33;6.37;;;34.90;34.30;;;;;;4995110;28;20427;-70
2022/07/24 10:45:16;;;;;;;7.70;7.10;;;35.10;33.50;;;;;;4995019;28;20543;-71
2022/07/24 10:47:43;;;;;;;6.30;5.80;;;35.20;32.50;;;;;;4994926;28;20542;-70
2022/07/24 10:50:11;;;;;;;6.37;5.87;;;35.40;32.40;;;;;;4994969;28;20448;-71
2022/07/24 10:52:40;;;;;;;6.53;6.03;;;35.70;31.90;;;;;;4994922;28;20439;-71
2022/07/24 10:55:29;;;;;;;6.93;6.37;;;36.50;31.40;;;;;;4994522;28;20460;-71
2022/07/24 10:57:59;;;;;;;8.30;6.00;;;37.30;30.50;;;;;;4994781;28;20199;-70
2022/07/24 11:00:31;;;;;;;6.07;5.47;;;38.30;29.30;;;;;;4994712;28;20234;-70
2022/07/24 11:03:00;;;;;;;8.00;5.28;;;38.90;25.70;;;;;;4994782;28;20196;-71
2022/07/24 11:05:31;;;;;;;6.05;5.60;;;39.20;26.10;;;;;;4994336;28;20211;-71
2022/07/24 11:08:33;;;;;;;6.05;5.65;;;39.20;25.60;;;;;;4994492;28;20272;-70
2022/07/24 11:11:18;;;;;;;6.63;5.97;;;39.40;26.20;;;;;;4994587;28;20208;-70
2022/07/24 11:13:51;;;;;;;5.43;4.90;;;39.80;25.40;;;;;;4995149;28;20211;-70
2022/07/24 11:16:19;;;;;;;5.30;4.80;;;39.90;25.20;;;;;;4994594;28;20193;-70
2022/07/24 11:19:19;;;;;;;5.72;5.32;;;39.90;23.90;;;;;;4994524;28;20223;-70
2022/07/24 11:21:47;;;;;;;5.20;4.90;;;40.40;24.20;;;;;;4994161;28;20212;-71
2022/07/24 11:24:19;;;;;;;5.75;5.35;;;41.00;25.10;;;;;;4994640;28;20204;-71
2022/07/24 11:26:52;;;;;;;5.82;5.38;;;41.30;23.00;;;;;;4994584;28;20189;-71
2022/07/24 11:29:22;;;;;;;5.97;5.38;;;41.60;22.60;;;;;;4994227;28;20228;-70
2022/07/24 11:31:51;;;;;;;5.35;4.95;;;41.80;22.00;;;;;;4994340;28;20189;-72
2022/07/24 11:34:18;;;;;;;5.50;5.00;;;42.10;22.50;;;;;;4994077;28;20689;-72
2022/07/24 11:36:47;;;;;;;5.35;5.00;;;42.70;22.70;;;;;;4993931;28;20666;-72
2022/07/24 11:39:15;;;;;;;4.88;4.47;;;42.70;20.90;;;;;;4994040;28;20315;-70
2022/07/24 11:41:45;;;;;;;4.47;4.18;;;42.50;21.20;;;;;;4994151;28;20227;-71
2022/07/24 11:44:14;;;;;;;5.10;4.57;;;42.40;20.20;;;;;;4994178;28;20203;-71
2022/07/24 11:46:43;;;;;;;4.88;4.38;;;41.90;21.60;;;;;;4994404;28;20291;-71
2022/07/24 11:49:10;;;;;;;8.85;4.97;;;41.70;21.60;;;;;;4994009;28;20227;-70
2022/07/24 11:51:43;;;;;;;5.25;4.30;;;42.10;22.40;;;;;;4994964;28;20204;-70
2022/07/24 11:54:11;;;;;;;5.10;4.70;;;42.30;21.50;;;;;;4994063;28;20208;-71
2022/07/24 11:56:38;;;;;;;6.30;4.50;;;42.30;22.10;;;;;;4994111;28;20201;-70
2022/07/24 11:59:05;;;;;;;5.85;4.35;;;42.40;21.00;;;;;;4993814;28;20581;-71
2022/07/24 12:01:33;;;;;;;4.95;4.55;;;42.80;21.60;;;;;;4994109;28;20271;-70
2022/07/24 12:04:01;;;;;;;4.00;3.70;;;43.30;20.90;;;;;;4994033;28;20213;-70
2022/07/24 12:06:28;;;;;;;4.10;3.80;;;42.90;19.60;;;;;;4994113;28;20200;-71
2022/07/24 12:08:59;;;;;;;4.32;3.92;;;42.30;20.20;;;;;;4993972;28;20224;-70
2022/07/24 12:11:25;;;;;;;4.15;3.85;;;42.50;19.40;;;;;;4993536;28;20623;-71
2022/07/24 12:13:53;;;;;;;4.38;3.88;;;42.40;20.00;;;;;;4993689;28;20189;-71
2022/07/24 12:16:24;;;;;;;4.97;4.15;;;42.30;20.80;;;;;;4993965;28;20251;-71
2022/07/24 12:18:52;;;;;;;4.65;4.25;;;42.40;20.00;;;;;;4993807;28;20225;-70
2022/07/24 12:21:19;;;;;;;4.43;4.03;;;42.80;20.30;;;;;;4995418;28;20636;-70
2022/07/24 12:23:46;;;;;;;6.18;5.03;;;43.70;20.10;;;;;;4997519;28;20672;-72
2022/07/24 12:26:13;;;;;;;4.75;4.35;;;43.90;19.90;;;;;;4997655;28;20204;-72
2022/07/24 12:28:40;;;;;;;5.43;4.25;;;43.90;19.50;;;;;;4997199;28;20228;-70
2022/07/24 12:31:08;;;;;;;4.40;4.10;;;44.00;19.50;;;;;;4997505;28;20201;-71
2022/07/24 12:33:35;;;;;;;4.45;4.05;;;44.50;18.70;;;;;;4997457;28;20201;-70
2022/07/24 12:36:09;;;;;;;5.13;4.72;;;45.30;18.20;;;;;;4997509;28;20252;-71
2022/07/24 12:38:37;;;;;;;4.78;4.40;;;45.70;17.10;;;;;;4997339;28;20279;-70
2022/07/24 12:41:07;;;;;;;7.30;4.18;;;45.30;17.90;;;;;;4996988;28;20561;-70
2022/07/24 12:43:34;;;;;;;4.97;4.57;;;45.40;17.40;;;;;;4997292;28;20601;-71
2022/07/24 12:46:08;;;;;;;4.13;3.83;;;45.80;17.50;;;;;;4997221;28;20221;-71
2022/07/24 12:48:36;;;;;;;5.07;4.60;;;46.50;17.80;;;;;;4997163;28;20223;-71